Latest Coastal Weather Observations for Geelong Racecourse

IDV60701

Issued at 6:12 pm EDT Saturday 29 February 2020 (issued every 10 minutes, with the page automatically refreshed every 10 minutes)

About coastal observations | Map of coastal stations | Coastal observations for VIC | Marine services | Other Formats
Station Details ID: 087184 Name: GEELONG RACECOURSE Lat: -38.17 Lon: 144.38 Height: 12.9 m
Data from the previous 72 hours. | See also: Recent months at Geelong Racecourse
Date/Time
EDT
Wind Sea
Height
m
Swell Vis
km
Cloud Weather Temp
°C
Press
hPa
Rain since
9am
mm
Dir  Spd
kts
Gust
kts
Height
m
Period
s
Dir
29/06:00pm S 9 12 - - - - - - - 20.1 1013.2 0.0
29/05:30pm S 9 11 - - - - - - - 20.4 1013.3 0.0
29/05:00pm S 9 13 - - - - - - - 21.3 1013.3 0.0
29/04:30pm SE 6 10 - - - - - - - 21.1 1013.3 0.0
29/04:00pm SE 9 12 - - - - - - - 20.9 1013.7 0.0
29/03:30pm SSE 9 13 - - - - - - - 20.8 1014.0 0.0
29/03:00pm SSW 5 10 - - - - - - - 22.3 1014.3 0.0
29/02:30pm SSW 3 8 - - - - - - - 21.5 1014.8 0.0
29/02:00pm S 3 5 - - - - - - - 22.1 1015.1 0.0
29/01:30pm SW 3 6 - - - - - - - 21.1 1015.5 0.0
29/01:00pm WNW 3 6 - - - - - - - 19.8 1015.8 0.0
29/12:30pm NW 5 7 - - - - - - - 19.0 1016.2 0.0
29/12:00pm NW 5 7 - - - - - - - 18.3 1016.4 0.0
29/11:30am WNW 6 8 - - - - - - - 17.6 1016.6 0.0
29/11:00am WNW 5 8 - - - - - - - 17.1 1016.8 0.0
29/10:30am NW 4 6 - - - - - - - 16.8 1016.7 0.0
29/10:00am W 4 6 - - - - - - - 16.2 1016.6 0.0
29/09:30am NW 5 7 - - - - - - - 15.1 1016.7 0.0
29/09:00am NW 3 5 - - - - - - - 14.8 1016.7 0.0
29/08:30am NW 3 4 - - - - - - - 14.3 1016.8 0.0
29/08:00am NW 3 4 - - - - - - - 13.9 1016.4 0.0
29/07:30am WNW 3 4 - - - - - - - 13.4 1016.3 0.0
29/07:00am WNW 5 6 - - - - - - - 13.3 1016.0 0.0
29/06:30am WNW 5 8 - - - - - - - 13.4 1015.7 0.0
29/06:00am NW 4 5 - - - - - - - 13.5 1015.6 0.0
29/05:30am NW 3 5 - - - - - - - 13.6 1015.4 0.0
29/05:00am NW 5 6 - - - - - - - 13.8 1015.7 0.0
29/04:30am WNW 3 5 - - - - - - - 14.1 1016.0 0.0
29/04:00am W 3 5 - - - - - - - 13.7 1016.4 0.0
29/03:30am WNW 2 3 - - - - - - - 12.4 1016.3 0.0
29/03:00am WNW 3 3 - - - - - - - 12.2 1016.2 0.0
29/02:30am WNW 1 1 - - - - - - - 12.5 1016.3 0.0
29/02:00am WNW 1 2 - - - - - - - 13.0 1016.4 0.0
29/01:30am WNW 2 4 - - - - - - - 13.2 1016.5 0.0
29/01:00am W 2 3 - - - - - - - 13.4 1016.7 0.0
29/12:30am WNW 2 3 - - - - - - - 13.7 1016.8 0.0
29/12:00am WNW 2 3 - - - - - - - 13.6 1016.6 0.0
 
Date/Time
EDT
Wind Sea
Height
m
Swell Vis
km
Cloud Weather Temp
°C
Press
hPa
Rain since
9am
mm
Dir  Spd
kts
Gust
kts
Height
m
Period
s
Dir
28/11:30pm WNW 3 3 - - - - - - - 14.2 1016.6 0.0
28/11:00pm CALM 0 0 - - - - - - - 14.6 1016.7 0.0
28/10:30pm CALM 0 1 - - - - - - - 14.7 1016.8 0.0
28/10:00pm NE 2 3 - - - - - - - 15.3 1016.7 0.0
28/09:30pm ENE 1 2 - - - - - - - 15.5 1016.6 0.0
28/09:00pm E 2 3 - - - - - - - 15.9 1016.3 0.0
28/08:30pm SE 2 3 - - - - - - - 16.3 1016.0 0.0
28/08:00pm SSE 4 6 - - - - - - - 16.8 1015.8 0.0
28/07:30pm SSE 4 5 - - - - - - - 17.1 1015.8 0.0
28/07:00pm SSE 5 8 - - - - - - - 17.4 1015.4 0.0
28/06:30pm SSE 7 9 - - - - - - - 17.8 1015.1 0.0
28/06:00pm SSE 7 9 - - - - - - - 18.4 1015.0 0.0
28/05:30pm S 6 10 - - - - - - - 18.4 1014.8 0.0
28/05:00pm S 7 11 - - - - - - - 18.4 1014.8 0.0
28/04:30pm SSE 7 11 - - - - - - - 18.2 1014.9 0.0
28/04:00pm SSE 6 9 - - - - - - - 18.5 1014.9 0.0
28/03:30pm SSE 8 11 - - - - - - - 18.6 1015.1 0.0
28/03:00pm S 7 11 - - - - - - - 18.5 1015.4 0.0
28/02:30pm S 8 13 - - - - - - - 18.6 1015.3 0.0
28/02:00pm W 5 10 - - - - - - - 19.5 1015.2 0.0
28/01:30pm S 5 10 - - - - - - - 17.9 1015.5 0.0
28/01:00pm WNW 7 12 - - - - - - - 19.1 1015.6 0.0
28/12:30pm WSW 8 11 - - - - - - - 18.7 1015.9 0.0
28/12:00pm W 8 13 - - - - - - - 18.8 1015.9 0.0
28/11:30am WSW 8 11 - - - - - - - 17.7 1015.9 0.0
28/11:00am W 6 9 - - - - - - - 18.5 1015.6 0.0
28/10:30am WNW 5 9 - - - - - - - 17.7 1015.6 0.0
28/10:00am WNW 6 9 - - - - - - - 16.7 1015.6 0.0
28/09:30am WNW 6 10 - - - - - - - 15.4 1015.4 0.0
28/09:00am W 6 9 - - - - - - - 15.2 1015.0 0.2
28/08:30am W 7 10 - - - - - - - 14.4 1014.7 -
28/08:00am WNW 4 5 - - - - - - - 13.4 1014.2 -
28/07:30am W 3 5 - - - - - - - 12.8 1013.9 -
28/07:00am W 5 7 - - - - - - - 13.1 1013.3 -
28/06:30am W 5 7 - - - - - - - 13.2 1013.1 -
28/06:00am W 4 6 - - - - - - - 13.0 1012.6 -
28/05:30am WNW 6 9 - - - - - - - 13.1 1012.2 -
28/05:00am WNW 7 12 - - - - - - - 13.4 1011.8 -
28/04:30am WNW 8 12 - - - - - - - 13.6 1011.7 -
28/04:00am W 6 11 - - - - - - - 13.6 1011.7 -
28/03:30am WNW 7 13 - - - - - - - 13.9 1011.7 -
28/03:00am WNW 4 6 - - - - - - - 13.7 1011.8 0.0
28/02:30am W 5 8 - - - - - - - 13.6 1011.7 -
28/02:00am WSW 6 10 - - - - - - - 14.0 1011.7 -
28/01:30am W 8 13 - - - - - - - 14.4 1011.6 -
28/01:00am WNW 6 9 - - - - - - - 14.4 1011.5 -
28/12:30am W 7 11 - - - - - - - 14.4 1011.3 -
28/12:00am W 9 13 - - - - - - - 14.5 1011.6 -
 
Date/Time
EDT
Wind Sea
Height
m
Swell Vis
km
Cloud Weather Temp
°C
Press
hPa
Rain since
9am
mm
Dir  Spd
kts
Gust
kts
Height
m
Period
s
Dir
27/11:30pm W 11 16 - - - - - - - 15.2 1011.5 -
27/11:00pm W 13 18 - - - - - - - 16.1 1011.1 -
27/10:30pm WSW 6 9 - - - - - - - 15.9 1011.7 -
27/10:00pm W 8 12 - - - - - - - 16.4 1011.1 -
27/09:30pm W 8 13 - - - - - - - 16.4 1010.7 -
27/09:00pm W 9 13 - - - - - - - 16.5 1010.5 0.0
27/08:30pm W 10 20 - - - - - - - 16.8 1010.6 -
27/08:00pm W 12 19 - - - - - - - 17.7 1010.1 -
27/07:30pm WSW 10 16 - - - - - - - 18.1 1010.1 -
27/07:00pm W 13 21 - - - - - - - 18.5 1010.0 -
27/06:30pm W 11 16 - - - - - - - 18.8 1009.9 -
27/06:00pm WNW 13 20 - - - - - - - 19.0 1009.6 -
27/05:30pm W 12 20 - - - - - - - 19.2 1009.5 -
27/05:00pm W 11 17 - - - - - - - 19.6 1009.4 -
27/04:30pm W 14 21 - - - - - - - 18.7 1009.8 -
27/04:00pm W 13 22 - - - - - - - 20.0 1009.7 -
27/03:30pm W 13 18 - - - - - - - 18.8 1010.0 -
27/03:00pm WNW 14 21 - - - - - - - 18.7 1010.5 0.2
27/02:30pm WNW 12 20 - - - - - - - 19.1 1010.4 -
27/02:00pm W 14 19 - - - - - - - 18.0 1010.8 -
27/01:30pm W 15 21 - - - - - - - 17.7 1011.2 -
27/01:15pm WNW 11 23 - - - - - - - 17.5 1011.4 -
27/01:00pm CALM 0 9 - - - - - - - 17.4 1011.6 -
27/12:30pm WNW 11 21 - - - - - - - 18.1 1011.5 -
27/12:00pm WNW 12 18 - - - - - - - 17.4 1011.6 0.0
27/11:30am WNW 11 17 - - - - - - - 17.3 1011.7 0.0
27/11:00am WNW 8 13 - - - - - - - 16.1 1012.3 0.0
27/10:30am WNW 7 12 - - - - - - - 15.0 1012.5 0.0
27/10:00am WNW 5 8 - - - - - - - 14.1 1012.7 0.0
27/09:30am NW 5 8 - - - - - - - 13.3 1012.7 0.0
27/09:00am WNW 5 8 - - - - - - - 12.4 1012.5 0.4
27/08:30am NW 5 7 - - - - - - - 11.9 1012.4 0.4
27/08:00am NW 5 7 - - - - - - - 11.2 1012.4 0.4
27/07:30am WNW 5 7 - - - - - - - 10.6 1012.1 0.4
27/07:00am WNW 6 9 - - - - - - - 10.0 1011.9 0.4
27/06:30am NW 6 8 - - - - - - - 9.6 1011.9 0.4
27/06:00am NW 5 7 - - - - - - - 9.5 1011.9 0.4
27/05:30am WNW 6 9 - - - - - - - 9.8 1011.8 0.4
27/05:00am WNW 6 9 - - - - - - - 9.8 1011.9 0.4
27/04:30am WNW 4 7 - - - - - - - 9.6 1011.9 0.4
27/04:00am WNW 2 5 - - - - - - - 9.6 1012.2 0.4
27/03:30am WNW 4 6 - - - - - - - 9.5 1012.3 0.4
27/03:00am WNW 3 5 - - - - - - - 9.6 1012.4 0.4
27/02:30am WNW 3 4 - - - - - - - 9.6 1012.7 0.4
27/02:00am NW 3 4 - - - - - - - - 1013.0 0.4
27/01:30am NW 2 4 - - - - - - - - 1013.2 0.4
27/01:00am W 2 3 - - - - - - - 10.7 1013.2 0.4
27/12:30am W 2 4 - - - - - - - 10.8 1013.3 0.4
27/12:00am W 3 4 - - - - - - - 11.0 1013.4 0.4
 
Date/Time
EDT
Wind Sea
Height
m
Swell Vis
km
Cloud Weather Temp
°C
Press
hPa
Rain since
9am
mm
Dir  Spd
kts
Gust
kts
Height
m
Period
s
Dir
26/11:30pm W 3 6 - - - - - - - 11.2 1013.5 0.4
26/11:00pm W 3 3 - - - - - - - 11.5 1013.6 0.4
26/10:30pm W 3 6 - - - - - - - 11.8 1013.4 0.4
26/10:00pm WSW 4 5 - - - - - - - 12.3 1013.5 0.4
26/09:30pm WSW 5 7 - - - - - - - 12.8 1013.4 0.4
26/09:00pm WSW 4 5 - - - - - - - 13.0 1013.3 0.4
26/08:30pm SSW 6 8 - - - - - - - 13.8 1012.9 0.4
26/08:00pm SSW 10 16 - - - - - - - 14.6 1012.7 0.4
26/07:30pm SSW 10 15 - - - - - - - 15.5 1012.4 0.4
26/07:00pm SSW 12 15 - - - - - - - 15.9 1012.1 0.4
26/06:30pm S 15 20 - - - - - - - 16.5 1012.0 0.4

Other formats

Comma delimited format used in spreadsheet applications
http://www.bom.gov.au/fwo/IDV60701/IDV60701.94857.axf

JavaScript Object Notation format (JSON) in row-major order
http://www.bom.gov.au/fwo/IDV60701/IDV60701.94857.json

Data quality

Most of these data are generated automatically and are frequently updated. Quality checks on data are not normally performed. It is possible for incorrect values to appear. Refer to information at About Latest Weather Observations and please check the disclaimer before using these data.